Time;durP1;ratioP1;P1;durP2;ratioP2;P2;SDS_P1;SDS_P2;PMS_P1;PMS_P2;Temp;Humidity;BMP_temperature;BMP_pressure;BME280_temperature;BME280_humidity;BME280_pressure;Samples;Min_cycle;Max_cycle;Signal;HPM_P1;HPM_P2
2022/09/19 02:46:16;;;;;;;0.90;0.10;;;12.40;82.20;;;;;;6027103;23;88953;31
2022/09/19 02:48:45;;;;;;;0.88;0.20;;;12.40;82.80;;;;;;4879256;28;87930;-73
2022/09/19 02:51:20;;;;;;;3.17;0.20;;;12.30;82.80;;;;;;4882653;28;87344;-72
2022/09/19 02:53:56;;;;;;;3.03;0.20;;;12.40;82.90;;;;;;4879615;28;86185;-72
2022/09/19 02:56:29;;;;;;;2.17;0.20;;;12.40;82.30;;;;;;4880708;28;86692;-72
2022/09/19 02:59:02;;;;;;;2.05;0.30;;;12.40;82.10;;;;;;4879667;28;87387;-72
2022/09/19 03:01:32;;;;;;;2.22;0.20;;;12.40;83.00;;;;;;4877465;28;88172;-73
2022/09/19 03:04:12;;;;;;;2.17;0.20;;;12.20;83.90;;;;;;4878450;28;87117;-73
2022/09/19 03:06:43;;;;;;;0.90;0.20;;;12.20;82.20;;;;;;4877305;28;86856;-72
2022/09/19 03:09:13;;;;;;;1.10;0.15;;;12.20;82.40;;;;;;4880297;28;86682;-72
2022/09/19 03:11:42;;;;;;;1.25;0.20;;;12.20;83.00;;;;;;4879432;28;87379;-73
2022/09/19 03:14:09;;;;;;;1.30;0.30;;;12.10;82.30;;;;;;4882783;28;86920;-71
2022/09/19 03:16:40;;;;;;;2.42;0.28;;;12.10;82.60;;;;;;4883621;28;86865;-72
2022/09/19 03:19:08;;;;;;;0.90;0.10;;;12.10;82.20;;;;;;4881303;28;86432;-70
2022/09/19 03:21:36;;;;;;;0.82;0.10;;;12.10;82.70;;;;;;4873145;28;87279;-71
2022/09/19 03:24:02;;;;;;;1.52;0.22;;;12.10;82.50;;;;;;4880812;28;86611;-71
2022/09/19 03:26:32;;;;;;;0.90;0.20;;;12.10;82.10;;;;;;4882678;28;87121;-73
2022/09/19 03:28:58;;;;;;;2.08;0.20;;;12.20;82.00;;;;;;4879877;28;86996;-73
2022/09/19 03:31:25;;;;;;;1.05;0.20;;;12.20;82.80;;;;;;4881075;28;86599;-74
2022/09/19 03:33:51;;;;;;;2.08;0.20;;;12.10;82.40;;;;;;4880034;28;86504;-72
2022/09/19 03:36:18;;;;;;;2.20;0.20;;;12.10;82.80;;;;;;4878844;28;87911;-72
2022/09/19 03:38:44;;;;;;;1.05;0.13;;;12.10;82.70;;;;;;4874100;28;88425;-73
2022/09/19 03:41:14;;;;;;;2.83;0.20;;;12.00;82.60;;;;;;4882166;28;86589;-71
2022/09/19 03:43:43;;;;;;;4.60;0.20;;;12.10;82.20;;;;;;4881744;28;86784;-70
2022/09/19 03:46:13;;;;;;;0.90;0.17;;;12.10;81.90;;;;;;4878990;28;86935;-72
2022/09/19 03:48:39;;;;;;;;;;;12.20;83.10;;;;;;4901048;28;86341;-71
2022/09/19 03:51:06;;;;;;;4.75;0.20;;;12.10;86.00;;;;;;4902188;28;88152;-73
2022/09/19 03:53:33;;;;;;;1.48;0.20;;;12.00;83.50;;;;;;4901491;28;87043;-71
2022/09/19 03:56:00;;;;;;;0.65;0.10;;;12.00;83.50;;;;;;4899800;28;86997;-72
2022/09/19 03:58:26;;;;;;;1.27;0.40;;;12.00;84.60;;;;;;4901035;28;87495;-72
2022/09/19 04:00:53;;;;;;;2.03;0.20;;;12.00;86.00;;;;;;4896626;28;87455;-74
2022/09/19 04:03:18;;;;;;;3.70;0.20;;;11.90;85.90;;;;;;4891299;28;87036;-71
2022/09/19 04:05:45;;;;;;;1.52;0.20;;;11.70;88.80;;;;;;4901383;28;86872;-72
2022/09/19 04:08:11;;;;;;;0.82;0.10;;;11.60;87.40;;;;;;4899854;28;85733;-72
2022/09/19 04:10:37;;;;;;;2.30;0.10;;;11.50;88.70;;;;;;4900518;28;87637;-71
2022/09/19 04:13:03;;;;;;;0.68;0.10;;;11.40;90.10;;;;;;4900423;28;86725;-71
2022/09/19 04:15:29;;;;;;;2.25;0.10;;;11.50;90.10;;;;;;4900497;28;87352;-72
2022/09/19 04:17:54;;;;;;;3.13;0.43;;;11.50;90.40;;;;;;4901021;28;87371;-73
2022/09/19 04:20:21;;;;;;;1.17;0.20;;;11.40;91.40;;;;;;4900574;28;87254;-71
2022/09/19 04:22:47;;;;;;;0.60;0.20;;;11.40;92.30;;;;;;4900088;28;87623;-72
2022/09/19 04:25:14;;;;;;;1.70;0.10;;;11.40;93.00;;;;;;4894473;28;86653;-72
2022/09/19 04:27:40;;;;;;;0.73;0.20;;;11.30;93.80;;;;;;4899359;28;86563;-72
2022/09/19 04:30:06;;;;;;;3.45;0.10;;;11.20;94.00;;;;;;4894610;28;86728;-73
2022/09/19 04:32:32;;;;;;;1.63;0.43;;;11.10;94.20;;;;;;4901297;28;86319;-72
2022/09/19 04:34:59;;;;;;;1.65;0.40;;;11.10;95.40;;;;;;4899275;28;88227;-71
2022/09/19 04:37:26;;;;;;;2.85;0.20;;;11.10;96.30;;;;;;4899688;28;86561;-72
2022/09/19 04:39:52;;;;;;;3.80;0.40;;;11.20;96.70;;;;;;4899838;28;88237;-72
2022/09/19 04:42:18;;;;;;;2.70;0.40;;;11.10;97.20;;;;;;4900661;28;87067;-73
2022/09/19 04:44:44;;;;;;;2.25;0.25;;;11.10;97.30;;;;;;4900413;28;86758;-72
2022/09/19 04:47:10;;;;;;;1.20;0.10;;;11.20;98.90;;;;;;4898070;28;86730;-72
2022/09/19 04:49:39;;;;;;;2.60;0.95;;;11.30;97.80;;;;;;4898419;28;87305;-70
2022/09/19 04:52:12;;;;;;;3.83;0.30;;;11.30;99.30;;;;;;4894798;28;86946;-71
2022/09/19 04:54:38;;;;;;;4.93;0.30;;;11.30;99.80;;;;;;4895854;28;86364;-72
2022/09/19 04:57:06;;;;;;;3.58;0.40;;;11.30;99.90;;;;;;4900778;28;86272;-71
2022/09/19 04:59:33;;;;;;;4.35;0.47;;;11.30;99.90;;;;;;4897528;28;87276;-72
2022/09/19 05:02:00;;;;;;;1.77;0.20;;;11.20;99.90;;;;;;4899064;28;87048;-71
2022/09/19 05:04:25;;;;;;;4.88;0.50;;;11.10;99.90;;;;;;4898582;28;87877;-74
2022/09/19 05:06:51;;;;;;;4.00;0.15;;;11.10;99.90;;;;;;4899900;28;87308;-72
2022/09/19 05:09:18;;;;;;;1.35;0.30;;;11.20;99.90;;;;;;4900168;28;87282;-72
2022/09/19 05:11:46;;;;;;;3.28;0.30;;;11.20;99.90;;;;;;4900665;28;86801;-73
2022/09/19 05:14:15;;;;;;;1.70;0.22;;;11.20;99.90;;;;;;4896806;28;86265;-72
2022/09/19 05:16:41;;;;;;;2.33;0.30;;;11.30;99.90;;;;;;4893380;28;86703;-74
2022/09/19 05:19:08;;;;;;;3.05;0.30;;;11.30;99.90;;;;;;4897937;28;87750;-72
2022/09/19 05:21:34;;;;;;;1.67;0.10;;;11.40;99.90;;;;;;4900555;28;86943;-72
2022/09/19 05:24:00;;;;;;;3.08;0.20;;;11.30;99.90;;;;;;4885519;28;86734;-72
2022/09/19 05:26:27;;;;;;;1.50;0.20;;;11.40;99.90;;;;;;4899590;28;87032;-71
2022/09/19 05:28:53;;;;;;;1.13;0.20;;;11.40;99.90;;;;;;4900008;28;87453;-73
2022/09/19 05:31:19;;;;;;;0.85;0.20;;;11.40;99.90;;;;;;4898540;28;88990;-72
2022/09/19 05:33:48;;;;;;;0.90;0.20;;;11.40;99.90;;;;;;4902122;28;87530;-71
2022/09/19 05:36:14;;;;;;;1.52;0.20;;;11.40;99.90;;;;;;4896622;28;86989;-72
2022/09/19 05:38:41;;;;;;;0.90;0.17;;;11.40;99.90;;;;;;4897354;28;87564;-72
2022/09/19 05:41:07;;;;;;;0.98;0.22;;;11.30;99.90;;;;;;4893912;28;86880;-72
2022/09/19 05:43:33;;;;;;;2.55;0.45;;;11.40;99.40;;;;;;4896480;28;86883;-74
2022/09/19 05:46:00;;;;;;;0.95;0.20;;;11.40;98.60;;;;;;4896202;28;85564;-72
2022/09/19 05:48:26;;;;;;;2.08;0.28;;;11.40;97.70;;;;;;4899094;28;86541;-72
2022/09/19 05:50:53;;;;;;;0.50;0.10;;;11.50;96.60;;;;;;4897601;28;86896;-71
2022/09/19 05:56:18;;;;;;;2.08;0.25;;;11.50;95.40;;;;;;4861528;28;87874;-72
2022/09/19 05:58:44;;;;;;;2.85;0.10;;;11.60;95.50;;;;;;4897604;28;86665;-72
2022/09/19 06:01:11;;;;;;;0.50;0.10;;;11.60;95.10;;;;;;4899057;28;86635;-72
2022/09/19 06:03:41;;;;;;;0.52;0.10;;;11.60;94.90;;;;;;4899851;28;87176;-72
2022/09/19 06:06:11;;;;;;;0.75;0.10;;;11.70;94.30;;;;;;4891932;28;87543;-72
2022/09/19 06:08:38;;;;;;;0.75;0.10;;;11.70;94.70;;;;;;4895002;28;87311;-72
2022/09/19 06:11:04;;;;;;;0.80;0.10;;;11.80;94.10;;;;;;4894144;28;87301;-72
2022/09/19 06:16:15;;;;;;;0.88;0.10;;;11.80;93.80;;;;;;4897073;28;86287;-72
2022/09/19 06:18:41;;;;;;;0.52;0.13;;;12.00;93.70;;;;;;4893418;28;87894;-72
2022/09/19 06:21:07;;;;;;;0.82;0.20;;;12.10;93.30;;;;;;4893700;28;87195;-74
2022/09/19 06:23:32;;;;;;;0.50;0.20;;;12.10;94.40;;;;;;4894561;28;86975;-73
2022/09/19 06:25:58;;;;;;;1.30;0.32;;;12.00;94.30;;;;;;4895767;28;88396;-72
2022/09/19 06:28:24;;;;;;;2.20;0.40;;;12.00;95.60;;;;;;4896629;28;87390;-73
2022/09/19 06:30:49;;;;;;;1.80;0.20;;;12.00;94.40;;;;;;4897119;28;86971;-73
2022/09/19 06:33:15;;;;;;;0.98;0.20;;;12.10;93.60;;;;;;4895628;28;86554;-72
2022/09/19 06:35:41;;;;;;;3.05;0.20;;;12.10;93.30;;;;;;4896657;28;85557;-72
2022/09/19 06:38:07;;;;;;;0.95;0.20;;;12.20;92.30;;;;;;4894257;28;87307;-73
2022/09/19 06:40:36;;;;;;;1.42;0.10;;;12.20;91.60;;;;;;4892569;28;86799;-75
2022/09/19 06:43:03;;;;;;;0.52;0.10;;;12.30;91.20;;;;;;4895479;28;87269;-72
2022/09/19 06:45:30;;;;;;;0.63;0.20;;;12.20;91.70;;;;;;4897076;28;86967;-72
2022/09/19 06:48:00;;;;;;;2.67;0.20;;;12.10;92.00;;;;;;4897439;28;87099;-73
2022/09/19 06:50:27;;;;;;;2.47;0.10;;;12.20;92.40;;;;;;4899914;28;86931;-73
2022/09/19 06:52:53;;;;;;;0.45;0.10;;;12.20;91.80;;;;;;4900801;28;86764;-72
2022/09/19 06:55:19;;;;;;;1.05;0.10;;;12.30;90.70;;;;;;4899336;28;86642;-72
2022/09/19 06:57:54;;;;;;;2.83;0.47;;;12.30;90.20;;;;;;4899217;28;87418;-73
2022/09/19 07:00:22;;;;;;;1.73;0.30;;;12.30;88.80;;;;;;4896691;28;86190;-73
2022/09/19 07:02:49;;;;;;;3.55;0.40;;;12.40;88.30;;;;;;4899195;28;86533;-72
2022/09/19 07:05:15;;;;;;;3.25;0.22;;;12.30;87.10;;;;;;4900329;28;87120;-72
2022/09/19 07:07:40;;;;;;;1.30;0.20;;;12.30;88.60;;;;;;4898491;28;88615;-72
2022/09/19 07:10:07;;;;;;;1.60;0.57;;;12.40;88.70;;;;;;4898678;28;87865;-74
2022/09/19 07:12:32;;;;;;;1.30;0.17;;;12.30;89.40;;;;;;4899276;28;86872;-72
2022/09/19 07:14:58;;;;;;;2.90;0.10;;;12.50;89.60;;;;;;4899622;28;86506;-73
2022/09/19 07:17:24;;;;;;;1.63;0.10;;;12.70;87.20;;;;;;4898741;28;87165;-72
2022/09/19 07:19:51;;;;;;;1.95;0.20;;;12.80;86.70;;;;;;4898920;28;87350;-72
2022/09/19 07:22:19;;;;;;;0.70;0.20;;;13.00;85.00;;;;;;4899998;28;86483;-74
2022/09/19 07:24:45;;;;;;;1.88;0.20;;;12.90;86.80;;;;;;4897630;28;85853;-72
2022/09/19 07:27:10;;;;;;;2.50;0.20;;;12.90;87.50;;;;;;4895691;28;86367;-72
2022/09/19 07:29:36;;;;;;;1.33;0.10;;;12.80;86.40;;;;;;4899146;28;86910;-72
2022/09/19 07:32:02;;;;;;;0.60;0.10;;;12.80;86.00;;;;;;4898776;28;87997;-72
2022/09/19 07:34:28;;;;;;;1.55;0.15;;;12.70;84.90;;;;;;4900250;28;86533;-73
2022/09/19 07:36:53;;;;;;;2.50;0.20;;;12.60;85.30;;;;;;4899419;28;88926;-73
2022/09/19 07:39:19;;;;;;;2.03;0.30;;;12.40;86.50;;;;;;4898528;28;86970;-73
2022/09/19 07:41:46;;;;;;;2.45;0.57;;;12.50;86.90;;;;;;4898881;28;86956;-73
2022/09/19 07:44:12;;;;;;;2.80;0.70;;;12.60;86.80;;;;;;4899824;28;86528;-73
2022/09/19 07:47:26;;;;;;;2.70;0.50;;;12.60;84.80;;;;;;4899183;28;86906;-73
2022/09/19 07:49:24;;;;;;;5.03;1.17;;;12.60;84.30;;;;;;4899297;28;87936;-73
2022/09/19 07:51:51;;;;;;;5.13;0.88;;;12.60;85.10;;;;;;4899384;28;86335;-73
2022/09/19 07:54:17;;;;;;;3.75;1.05;;;12.70;84.10;;;;;;4898593;28;87066;-73
2022/09/19 07:56:43;;;;;;;1.75;0.40;;;12.80;84.00;;;;;;4898956;28;87645;-72
2022/09/19 07:59:08;;;;;;;2.80;0.10;;;12.80;81.40;;;;;;4897216;28;87872;-72
2022/09/19 08:01:34;;;;;;;1.30;0.13;;;12.90;80.60;;;;;;4898068;28;86745;-73
2022/09/19 08:04:00;;;;;;;1.65;0.15;;;12.70;79.50;;;;;;4898534;28;87591;-73
2022/09/19 08:06:27;;;;;;;1.88;0.20;;;12.70;78.20;;;;;;4896919;28;90630;-73
2022/09/19 08:08:54;;;;;;;3.15;0.30;;;12.80;77.80;;;;;;4896007;28;87137;-73
2022/09/19 08:11:21;;;;;;;1.38;0.10;;;13.00;78.90;;;;;;4896944;28;86957;-72
2022/09/19 08:13:47;;;;;;;4.95;0.40;;;13.50;75.20;;;;;;4899743;28;85533;-72
2022/09/19 08:16:14;;;;;;;4.55;0.65;;;14.30;71.30;;;;;;4898895;28;87711;-73
2022/09/19 08:18:40;;;;;;;1.30;0.20;;;15.30;71.20;;;;;;4899286;28;87078;-73
2022/09/19 08:21:06;;;;;;;1.17;0.20;;;15.30;68.40;;;;;;4898641;28;87593;-72
2022/09/19 08:23:32;;;;;;;3.55;0.73;;;15.30;66.30;;;;;;4898291;28;86955;-72
2022/09/19 08:26:01;;;;;;;1.85;0.10;;;15.10;66.70;;;;;;4898605;28;87192;-73
2022/09/19 08:28:30;;;;;;;2.40;0.20;;;15.10;66.80;;;;;;4899012;28;86628;-72
2022/09/19 08:31:03;;;;;;;2.35;0.40;;;15.30;69.40;;;;;;4898849;28;86782;-72
2022/09/19 08:33:30;;;;;;;2.10;0.70;;;17.00;70.60;;;;;;4898805;28;86894;-72
2022/09/19 08:35:59;;;;;;;1.40;0.32;;;19.10;61.00;;;;;;4898276;28;87629;-74
2022/09/19 08:38:25;;;;;;;1.85;0.10;;;18.10;62.70;;;;;;4894259;28;86970;-73
2022/09/19 08:40:59;;;;;;;0.60;0.20;;;17.60;63.90;;;;;;4895556;28;87455;-73
2022/09/19 08:44:10;;;;;;;2.75;0.10;;;17.20;62.00;;;;;;4893557;28;86835;-72
2022/09/19 08:46:51;;;;;;;0.82;0.10;;;16.70;63.90;;;;;;4896455;28;89365;-72
2022/09/19 08:49:33;;;;;;;1.88;0.40;;;17.20;63.20;;;;;;4896241;28;87818;-72
2022/09/19 08:52:21;;;;;;;2.22;0.57;;;20.80;61.20;;;;;;4896239;28;86785;-73
2022/09/19 08:54:52;;;;;;;1.33;0.50;;;24.70;51.00;;;;;;4894521;28;86857;-75
2022/09/19 08:57:28;;;;;;;2.05;0.50;;;25.70;46.20;;;;;;4896937;28;86619;-73
2022/09/19 08:59:59;;;;;;;2.00;0.50;;;26.20;43.10;;;;;;4891014;28;86926;-70
2022/09/19 09:02:49;;;;;;;1.83;1.15;;;26.80;45.60;;;;;;4897065;28;86794;-71
2022/09/19 09:05:18;;;;;;;1.75;0.63;;;27.00;40.50;;;;;;4892651;28;85807;-74
2022/09/19 09:07:55;;;;;;;1.23;0.30;;;24.20;42.60;;;;;;4897189;28;87307;-72
2022/09/19 09:10:25;;;;;;;1.52;0.43;;;21.90;46.30;;;;;;4897523;28;87062;-73
2022/09/19 09:12:58;;;;;;;5.63;1.17;;;24.30;44.00;;;;;;4896319;28;87715;-71
2022/09/19 09:15:36;;;;;;;2.72;1.00;;;27.60;42.30;;;;;;4897179;28;86275;-72
2022/09/19 09:18:44;;;;;;;2.28;1.20;;;31.60;35.60;;;;;;4897661;28;87383;-71
2022/09/19 09:21:28;;;;;;;3.80;1.98;;;34.20;32.20;;;;;;4894911;28;88020;-71
2022/09/19 09:24:04;;;;;;;2.63;1.85;;;36.30;29.70;;;;;;4897981;28;86318;-71
2022/09/19 09:26:36;;;;;;;4.85;1.85;;;37.10;32.50;;;;;;4897441;28;86857;-72
2022/09/19 09:29:17;;;;;;;2.88;2.08;;;37.50;29.60;;;;;;4897680;28;88061;-71
2022/09/19 09:32:20;;;;;;;2.65;2.33;;;38.10;29.70;;;;;;4895516;28;86853;-72
2022/09/19 09:35:03;;;;;;;2.95;2.38;;;39.70;30.00;;;;;;4898399;28;86792;-70
2022/09/19 09:37:36;;;;;;;2.40;0.93;;;37.30;28.60;;;;;;4896552;28;86623;-70
2022/09/19 09:41:44;;;;;;;3.28;2.67;;;35.70;29.30;;;;;;4898197;28;88195;-71
2022/09/19 09:43:05;;;;;;;4.05;2.78;;;36.90;28.50;;;;;;4896526;28;89003;-71
2022/09/19 09:45:44;;;;;;;3.20;2.40;;;37.10;27.80;;;;;;4896706;28;88053;-71
2022/09/19 09:48:29;;;;;;;4.65;3.03;;;38.20;27.80;;;;;;4896322;28;87419;-71
2022/09/19 09:50:57;;;;;;;3.00;2.67;;;37.90;28.50;;;;;;4895752;28;87263;-73
2022/09/19 09:53:48;;;;;;;3.63;2.92;;;38.50;27.90;;;;;;4897303;28;86978;-71
2022/09/19 09:56:34;;;;;;;3.72;2.38;;;37.90;26.60;;;;;;4892848;28;86800;-71
2022/09/19 10:05:42;;;;;;;3.67;2.05;;;39.50;26.60;;;;;;4892628;28;87188;-72
2022/09/19 10:08:28;;;;;;;3.22;2.92;;;39.30;27.90;;;;;;4896669;28;87639;-71
2022/09/19 10:11:09;;;;;;;5.10;2.83;;;39.10;26.40;;;;;;4894486;28;86347;-71
2022/09/19 10:13:40;;;;;;;4.15;3.08;;;39.90;26.80;;;;;;4893596;28;86524;-71
2022/09/19 10:16:07;;;;;;;3.33;3.03;;;40.20;26.70;;;;;;4892194;28;87871;-72
2022/09/19 10:18:43;;;;;;;4.63;3.28;;;39.30;26.40;;;;;;4894859;28;86628;-72
2022/09/19 10:21:09;;;;;;;4.20;3.28;;;36.20;27.80;;;;;;4894149;28;88171;-74
2022/09/19 10:23:35;;;;;;;3.17;2.88;;;34.60;28.50;;;;;;4890505;28;87905;-70
2022/09/19 10:26:14;;;;;;;3.42;1.77;;;31.60;29.70;;;;;;4895315;28;88484;-71
2022/09/19 10:28:46;;;;;;;2.63;2.13;;;28.40;32.80;;;;;;4892639;28;87250;-72
2022/09/19 10:31:41;;;;;;;2.90;1.60;;;25.80;35.00;;;;;;4891838;28;86816;-73
2022/09/19 10:34:27;;;;;;;4.18;1.38;;;24.20;38.50;;;;;;4870678;28;89149;-73
2022/09/19 10:36:53;;;;;;;1.90;1.20;;;23.00;38.50;;;;;;4892533;28;88231;-74
2022/09/19 10:39:22;;;;;;;2.53;1.02;;;22.20;40.80;;;;;;4894813;28;87002;-73
2022/09/19 10:41:49;;;;;;;2.28;0.80;;;21.50;42.10;;;;;;4891549;28;87724;-73
2022/09/19 10:44:22;;;;;;;3.60;0.73;;;21.20;43.10;;;;;;4889207;28;86418;-73
2022/09/19 10:47:03;;;;;;;2.65;1.05;;;20.90;45.10;;;;;;4893265;28;88329;-71
2022/09/19 10:49:44;;;;;;;4.53;0.63;;;21.00;49.90;;;;;;4893373;28;87013;-75
2022/09/19 10:52:12;;;;;;;1.05;0.20;;;20.90;48.40;;;;;;4891883;28;86746;-73
2022/09/19 10:54:41;;;;;;;4.47;0.50;;;20.50;47.90;;;;;;4896976;28;88634;-71
2022/09/19 10:57:25;;;;;;;2.05;0.50;;;20.10;50.00;;;;;;4896823;28;87170;-72
2022/09/19 10:59:52;;;;;;;1.77;0.10;;;19.70;48.20;;;;;;4893401;28;88486;-73
2022/09/19 11:02:27;;;;;;;2.78;0.35;;;19.40;50.20;;;;;;4897258;28;87082;-73
2022/09/19 11:05:04;;;;;;;1.58;0.30;;;19.20;49.90;;;;;;4897791;28;87342;-73
2022/09/19 11:07:33;;;;;;;1.92;0.40;;;18.90;52.10;;;;;;4893761;28;86353;-73
2022/09/19 11:10:09;;;;;;;2.25;0.32;;;19.00;53.10;;;;;;4898140;28;86730;-72
2022/09/19 11:12:38;;;;;;;2.58;0.30;;;18.90;51.80;;;;;;4894228;28;86999;-73
2022/09/19 11:15:12;;;;;;;3.45;0.35;;;18.70;52.60;;;;;;4891250;28;87019;-75
2022/09/19 11:18:09;;;;;;;2.50;0.47;;;18.50;51.40;;;;;;4896921;28;86172;-73
2022/09/19 11:20:48;;;;;;;3.15;0.47;;;18.50;52.20;;;;;;4895688;28;86739;-74
2022/09/19 11:23:45;;;;;;;2.72;0.10;;;18.60;52.80;;;;;;4896960;28;86341;-73
2022/09/19 11:26:28;;;;;;;2.53;0.22;;;19.00;52.80;;;;;;4896133;28;88794;-73
2022/09/19 11:29:10;;;;;;;3.05;0.25;;;19.10;51.60;;;;;;4892432;28;87765;-72
2022/09/19 11:32:03;;;;;;;2.45;0.45;;;19.00;52.20;;;;;;4896225;28;86768;-74
2022/09/19 11:34:50;;;;;;;3.33;0.38;;;19.20;56.40;;;;;;4893554;28;87016;-73
2022/09/19 11:37:32;;;;;;;4.03;0.57;;;19.50;52.10;;;;;;4897723;28;86784;-72
2022/09/19 11:40:04;;;;;;;1.98;0.30;;;19.50;50.50;;;;;;4896688;28;88414;-74
2022/09/19 11:42:41;;;;;;;1.48;0.20;;;19.40;49.70;;;;;;4898019;28;86675;-73
2022/09/19 11:45:17;;;;;;;1.92;0.30;;;19.00;53.90;;;;;;4895170;28;85797;-72
2022/09/19 11:48:17;;;;;;;1.85;0.20;;;18.80;51.10;;;;;;4898761;28;89465;-73
2022/09/19 11:50:59;;;;;;;;;;;18.80;51.40;;;;;;4900376;28;86884;-71
2022/09/19 11:53:48;;;;;;;1.02;0.30;;;18.80;52.60;;;;;;4899253;28;87306;-74
2022/09/19 11:56:18;;;;;;;1.30;0.30;;;19.00;51.90;;;;;;4899999;28;87067;-72
2022/09/19 11:58:51;;;;;;;3.38;0.30;;;19.10;49.70;;;;;;4899351;28;87552;-72
2022/09/19 12:01:29;;;;;;;2.05;0.47;;;18.80;50.40;;;;;;4896901;28;88015;-72
2022/09/19 12:04:15;;;;;;;3.75;0.20;;;18.50;48.30;;;;;;4894314;28;86765;-72
2022/09/19 12:06:48;;;;;;;2.58;0.40;;;18.20;50.50;;;;;;4899654;28;86784;-72
2022/09/19 12:09:28;;;;;;;1.75;0.20;;;18.20;49.70;;;;;;4897599;28;86718;-73
2022/09/19 12:12:03;;;;;;;3.25;0.20;;;17.80;52.10;;;;;;4900287;28;87040;-73
2022/09/19 12:14:42;;;;;;;1.95;0.38;;;18.20;51.30;;;;;;4897946;28;86981;-74
2022/09/19 12:17:26;;;;;;;2.53;0.40;;;18.40;49.50;;;;;;4898731;28;86621;-73
2022/09/19 12:20:26;;;;;;;1.50;0.22;;;18.20;48.90;;;;;;4898581;28;87573;-73
2022/09/19 12:24:52;;;;;;;2.03;0.25;;;18.20;48.80;;;;;;4890628;28;87401;-74
2022/09/19 12:25:55;;;;;;;1.52;0.20;;;18.10;49.70;;;;;;4898238;28;86358;-73
2022/09/19 12:28:24;;;;;;;3.80;0.30;;;17.00;51.80;;;;;;4898603;28;86679;-73
2022/09/19 12:30:55;;;;;;;3.90;0.65;;;16.70;52.60;;;;;;4897187;28;87171;-73
2022/09/19 12:33:57;;;;;;;4.05;0.30;;;16.60;52.00;;;;;;4898639;28;86806;-71
2022/09/19 12:36:46;;;;;;;1.67;0.30;;;16.70;54.50;;;;;;4848684;28;86800;-73
2022/09/19 12:39:22;;;;;;;10.82;1.35;;;16.70;54.90;;;;;;4884742;28;86060;-73
2022/09/19 12:41:57;;;;;;;6.32;0.50;;;16.60;53.90;;;;;;4897148;28;90796;-73
2022/09/19 12:44:37;;;;;;;2.90;0.35;;;16.30;54.40;;;;;;4897212;28;87018;-73
2022/09/19 12:47:22;;;;;;;5.07;0.40;;;16.50;54.70;;;;;;4897765;28;87679;-71
2022/09/19 12:50:22;;;;;;;2.08;0.30;;;16.20;53.30;;;;;;4894995;28;88352;-72
2022/09/19 12:53:03;;;;;;;2.45;0.28;;;16.20;56.50;;;;;;4885960;28;86761;-73
2022/09/19 12:55:38;;;;;;;2.03;0.82;;;16.40;54.30;;;;;;4898837;28;86824;-75
2022/09/19 12:58:26;;;;;;;5.40;0.20;;;16.40;53.00;;;;;;4896974;28;87022;-72
2022/09/19 13:01:13;;;;;;;2.38;0.35;;;16.50;57.10;;;;;;4894052;28;87444;-73
2022/09/19 13:03:44;;;;;;;2.55;0.20;;;16.70;56.70;;;;;;4897476;28;87453;-73
2022/09/19 13:06:20;;;;;;;4.18;0.30;;;16.80;54.30;;;;;;4893756;28;86868;-72
2022/09/19 13:09:03;;;;;;;1.02;0.10;;;17.00;52.70;;;;;;4896243;28;87374;-72
2022/09/19 13:11:42;;;;;;;2.30;0.20;;;16.90;53.60;;;;;;4897940;28;86835;-72
2022/09/19 13:14:33;;;;;;;3.70;0.30;;;16.90;54.20;;;;;;4898252;28;87904;-71
2022/09/19 13:25:35;;;;;;;10.05;1.60;;;16.90;54.70;;;;;;4898002;28;87259;-72
2022/09/19 13:28:19;;;;;;;2.05;0.30;;;17.00;55.00;;;;;;4897815;28;86976;-72
2022/09/19 13:30:57;;;;;;;3.58;0.47;;;17.10;51.90;;;;;;4897834;28;86171;-71
2022/09/19 13:33:34;;;;;;;0.82;0.10;;;16.50;52.40;;;;;;4896964;28;86379;-72
2022/09/19 13:36:11;;;;;;;5.45;0.82;;;16.50;52.30;;;;;;4895664;28;87281;-72
2022/09/19 13:38:46;;;;;;;3.33;0.52;;;16.60;57.20;;;;;;4893035;28;87003;-72
2022/09/19 13:41:36;;;;;;;2.22;0.25;;;16.70;55.50;;;;;;4892548;28;88055;-71
2022/09/19 13:44:23;;;;;;;11.48;2.22;;;16.80;53.70;;;;;;4896374;28;86809;-71
2022/09/19 13:46:52;;;;;;;1.45;0.20;;;16.70;54.00;;;;;;4894448;28;87311;-72
2022/09/19 13:49:40;;;;;;;1.88;0.30;;;16.70;53.60;;;;;;4896046;28;87315;-71
2022/09/19 13:52:10;;;;;;;2.25;0.30;;;16.90;52.00;;;;;;4897227;28;86565;-73
2022/09/19 13:55:02;;;;;;;3.33;0.20;;;16.80;52.70;;;;;;4897806;28;86483;-72
2022/09/19 13:57:31;;;;;;;1.98;0.10;;;16.70;51.50;;;;;;4897860;28;86734;-73
2022/09/19 14:00:00;;;;;;;3.67;0.32;;;16.60;52.30;;;;;;4897865;28;86910;-73
2022/09/19 14:02:38;;;;;;;1.50;0.10;;;16.50;54.50;;;;;;4896932;28;86905;-71
2022/09/19 14:05:10;;;;;;;1.15;0.10;;;16.50;51.30;;;;;;4895892;28;86568;-71
2022/09/19 14:07:46;;;;;;;3.03;0.30;;;16.40;52.20;;;;;;4894109;28;87490;-72
2022/09/19 14:10:25;;;;;;;3.22;0.20;;;16.50;52.10;;;;;;4897150;28;88336;-73
2022/09/19 14:12:54;;;;;;;0.73;0.20;;;16.40;51.10;;;;;;4896972;28;87016;-72
2022/09/19 14:15:42;;;;;;;2.05;0.20;;;16.50;52.90;;;;;;4897472;28;86771;-72
2022/09/19 14:18:10;;;;;;;2.20;0.20;;;16.10;51.40;;;;;;4896697;28;87215;-72
2022/09/19 14:20:48;;;;;;;0.70;0.10;;;15.90;54.00;;;;;;4893075;28;86742;-72
2022/09/19 14:23:15;;;;;;;1.83;0.35;;;16.20;54.10;;;;;;4897587;28;86818;-72
2022/09/19 14:25:54;;;;;;;1.27;0.20;;;16.30;51.90;;;;;;4897934;28;85421;-72
2022/09/19 14:28:38;;;;;;;1.98;0.20;;;16.30;55.40;;;;;;4897294;28;86614;-72
2022/09/19 14:31:26;;;;;;;1.55;0.20;;;16.20;52.90;;;;;;4896572;28;86950;-72
2022/09/19 14:34:31;;;;;;;1.50;0.20;;;16.20;54.10;;;;;;4892998;28;87482;-72
2022/09/19 14:37:21;;;;;;;0.82;0.10;;;16.20;53.20;;;;;;4889261;28;86693;-73
2022/09/19 14:40:40;;;;;;;1.27;0.15;;;16.40;54.30;;;;;;4895027;28;87153;-72
2022/09/19 14:43:25;;;;;;;3.65;0.40;;;16.30;53.10;;;;;;4856980;29;86931;-71
2022/09/19 14:46:20;;;;;;;1.95;0.20;;;16.40;55.00;;;;;;4893794;28;86487;-74
2022/09/19 14:48:53;;;;;;;2.13;0.25;;;16.50;53.10;;;;;;4885170;28;86536;-71
2022/09/19 14:51:43;;;;;;;2.03;0.20;;;16.50;51.70;;;;;;4894945;28;87268;-71
2022/09/19 14:54:28;;;;;;;1.70;0.20;;;16.30;52.10;;;;;;4899240;28;86913;-73
2022/09/19 14:57:00;;;;;;;2.15;0.20;;;16.30;52.60;;;;;;4898834;28;86744;-72
2022/09/19 14:59:26;;;;;;;1.17;0.20;;;16.20;53.50;;;;;;4898252;28;86714;-72
2022/09/19 15:01:55;;;;;;;1.40;0.10;;;16.20;52.70;;;;;;4895669;28;89359;-73
2022/09/19 15:04:24;;;;;;;1.45;0.43;;;16.20;54.10;;;;;;4898447;28;87197;-72
2022/09/19 15:06:56;;;;;;;2.85;0.28;;;16.20;49.00;;;;;;4898135;28;86857;-72
2022/09/19 15:09:26;;;;;;;0.65;0.10;;;16.30;50.30;;;;;;4899503;28;86751;-72
2022/09/19 15:11:55;;;;;;;1.20;0.10;;;16.20;49.30;;;;;;4900471;28;87279;-72
2022/09/19 15:14:26;;;;;;;1.42;0.10;;;16.20;50.80;;;;;;4900656;28;87326;-71
2022/09/19 15:17:10;;;;;;;1.95;0.20;;;16.20;48.80;;;;;;4896814;28;86902;-72
2022/09/19 15:19:43;;;;;;;1.10;0.10;;;16.10;49.40;;;;;;4898113;28;85982;-73
2022/09/19 15:22:18;;;;;;;2.08;0.10;;;16.10;49.50;;;;;;4897963;28;86921;-73
2022/09/19 15:24:50;;;;;;;1.42;0.22;;;16.10;48.20;;;;;;4901488;28;86852;-74
2022/09/19 15:27:22;;;;;;;0.90;0.10;;;16.00;51.90;;;;;;4900313;28;88124;-72
2022/09/19 15:29:48;;;;;;;1.38;0.17;;;16.00;48.40;;;;;;4890111;28;86650;-73
2022/09/19 15:32:15;;;;;;;4.68;0.30;;;15.90;50.70;;;;;;4901502;28;87194;-73
2022/09/19 15:34:42;;;;;;;1.65;0.10;;;16.00;52.40;;;;;;4895061;28;86939;-74
2022/09/19 15:37:14;;;;;;;1.33;0.10;;;16.10;50.00;;;;;;4901795;28;86274;-73
2022/09/19 15:39:40;;;;;;;1.30;0.20;;;16.00;52.10;;;;;;4901371;28;86524;-71
2022/09/19 15:42:07;;;;;;;1.58;0.20;;;15.90;53.40;;;;;;4901269;28;86528;-72
2022/09/19 15:44:35;;;;;;;2.47;0.10;;;15.90;52.10;;;;;;4901702;28;86319;-72
2022/09/19 15:47:05;;;;;;;3.22;0.10;;;15.90;53.00;;;;;;4897653;28;86965;-72
2022/09/19 15:49:43;;;;;;;2.90;0.22;;;15.80;51.80;;;;;;4900688;28;86695;-73
2022/09/19 15:52:11;;;;;;;3.13;0.25;;;15.70;53.00;;;;;;4897874;28;87776;-74
2022/09/19 15:54:53;;;;;;;2.08;0.20;;;15.60;52.80;;;;;;4900066;28;87180;-73
2022/09/19 15:57:49;;;;;;;1.35;0.10;;;15.60;54.40;;;;;;4892742;28;86347;-72
2022/09/19 16:00:18;;;;;;;1.90;0.20;;;15.50;53.20;;;;;;4901163;28;86329;-72
2022/09/19 16:02:57;;;;;;;2.10;0.20;;;15.50;53.50;;;;;;4899893;28;87120;-71
2022/09/19 16:05:35;;;;;;;4.28;0.40;;;15.40;54.00;;;;;;4899266;28;87527;-72
2022/09/19 16:10:51;;;;;;;2.17;0.30;;;15.70;52.00;;;;;;4901426;28;86171;-72
2022/09/19 16:13:40;;;;;;;4.97;1.38;;;15.70;53.50;;;;;;4901022;28;87438;-71
2022/09/19 16:16:29;;;;;;;4.82;0.43;;;15.70;53.40;;;;;;4900937;28;87004;-71
2022/09/19 16:18:55;;;;;;;1.80;0.32;;;15.60;55.00;;;;;;4895290;28;87636;-73
2022/09/19 16:21:39;;;;;;;1.35;0.25;;;15.60;57.30;;;;;;4899748;28;86967;-72
2022/09/19 16:24:12;;;;;;;1.98;0.40;;;15.50;53.20;;;;;;4899950;28;87418;-74
2022/09/19 16:26:37;;;;;;;2.10;0.30;;;15.50;55.00;;;;;;4899367;28;86987;-72
2022/09/19 16:29:04;;;;;;;3.33;0.82;;;15.40;56.50;;;;;;4899760;28;87210;-72